Home   Weather   Realmonte   Past weeks
Flag for Italy

Past Weather in Realmonte, Italy — Yesterday and Last 2 Weeks

Currently: 72 °F. Passing clouds. (Weather station: Palermo / Punta Raisi, Italy). See more current weather

Past Weather in Realmonte — Graph

°F

Realmonte Temperature Yesterday

Maximum temperature yesterday: 73 °F (at 12:20 pm)
Minimum temperature yesterday: 64 °F (at 4:20 am)
Average temperature yesterday: 70 °F

High & Low Weather Summary for the Past Weeks

 TemperatureHumidityPressure
High84 °F (May 18, 10:50 am)100% (May 16, 3:20 am)30.09 "Hg (May 16, 3:20 am)
Low61 °F (May 23, 5:50 am)36% (May 25, 1:50 pm)29.59 "Hg (May 16, 5:50 am)
Average70 °F75%29.93 "Hg
* Reported May 15 9:20 am — May 30 9:20 am, Realmonte. Weather by CustomWeather, © 2024

Note: Actual official high and low records may vary slightly from our data, if they occured in-between our weather recording intervals... More about our weather records

Realmonte Weather History for the Previous 24 Hours

Scroll right to see more
 ConditionsComfort  
Time TempWeatherWind HumidityBarometerVisibility
9:20 am
Thu, May 30
72 °FPassing clouds.7 mph73%29.86 "HgN/A
8:50 am72 °FSunny.7 mph73%29.86 "Hg10 mi
8:20 am72 °FSunny.8 mph69%29.86 "Hg10 mi
7:50 am70 °FSunny.7 mph73%29.86 "Hg10 mi
7:20 am70 °FPassing clouds.7 mph73%29.86 "HgN/A
6:50 am68 °FPassing clouds.3 mph73%29.86 "HgN/A
6:20 am66 °FSunny.2 mph78%29.86 "Hg10 mi
5:50 am68 °FSunny.7 mph73%29.86 "Hg10 mi
5:20 am68 °FClear.7 mph73%29.86 "Hg10 mi
4:50 am68 °FClear.8 mph73%29.86 "Hg10 mi
4:20 am68 °FClear.8 mph73%29.86 "Hg10 mi
3:20 am68 °FClear.9 mph78%29.86 "Hg10 mi
2:50 am68 °FPassing clouds.9 mph78%29.86 "HgN/A
2:20 am70 °FClear.9 mph73%29.86 "Hg10 mi
1:50 am70 °FClear.9 mph78%29.86 "Hg10 mi
1:20 am70 °FClear.9 mph78%29.86 "Hg10 mi
12:50 am70 °FClear.9 mph78%29.89 "Hg10 mi
11:50 pm
Wed, May 29
70 °FClear.9 mph78%29.89 "Hg10 mi
11:20 pm70 °FClear.10 mph78%29.89 "Hg10 mi
10:20 pm70 °FPassing clouds.8 mph78%29.89 "HgN/A
9:20 pm70 °FPassing clouds.7 mph83%29.89 "HgN/A
8:50 pm72 °FPassing clouds.6 mph78%29.89 "HgN/A
8:20 pm72 °FScattered clouds.7 mph83%29.89 "HgN/A
7:50 pm72 °FScattered clouds.6 mph83%29.89 "HgN/A
6:50 pm72 °FScattered clouds.6 mph83%29.89 "HgN/A
6:20 pm72 °FPassing clouds.6 mph83%29.86 "HgN/A
5:50 pm73 °FPassing clouds.6 mph78%29.89 "HgN/A
5:20 pm73 °FPassing clouds.7 mph78%29.89 "HgN/A
4:50 pm73 °FPassing clouds.8 mph74%29.89 "HgN/A
4:20 pm73 °FPassing clouds.6 mph69%29.89 "HgN/A
3:20 pm72 °FPassing clouds.10 mph78%29.92 "HgN/A
2:50 pm73 °FPassing clouds.10 mph74%29.92 "HgN/A
1:50 pm73 °FPassing clouds.15 mph69%29.92 "HgN/A
12:50 pm73 °FPassing clouds.14 mph69%29.92 "HgN/A
12:20 pm73 °FSunny.13 mph65%29.92 "Hg10 mi
11:50 am72 °FSunny.9 mph73%29.92 "Hg10 mi
11:20 am72 °FSunny.8 mph73%29.95 "Hg10 mi
Weather by CustomWeather, © 2024

See weather overview